Time;durP1;ratioP1;P1;durP2;ratioP2;P2;SDS_P1;SDS_P2;PMS_P1;PMS_P2;Temp;Humidity;BMP_temperature;BMP_pressure;BME280_temperature;BME280_humidity;BME280_pressure;Samples;Min_cycle;Max_cycle;Signal;HPM_P1;HPM_P2
2022/12/14 00:01:34;;;;;;;5.10;3.25;;;17.20;1.00;;;;;;5094562;28;20097;-38
2022/12/14 00:04:01;;;;;;;5.30;3.55;;;17.10;1.00;;;;;;5092878;28;20071;-39
2022/12/14 00:06:29;;;;;;;5.70;3.60;;;17.10;1.00;;;;;;5080468;28;20036;-39
2022/12/14 00:08:58;;;;;;;5.97;3.78;;;17.00;1.00;;;;;;5083320;28;20174;-38
2022/12/14 00:11:26;;;;;;;5.47;4.03;;;17.00;1.00;;;;;;5069034;28;20032;-39
2022/12/14 00:13:59;;;;;;;5.22;3.33;;;17.00;1.00;;;;;;5085801;28;20055;-38
2022/12/14 00:16:28;;;;;;;5.50;3.55;;;16.90;1.00;;;;;;5094271;28;20064;-38
2022/12/14 00:18:57;;;;;;;7.68;3.45;;;16.90;1.00;;;;;;5094190;28;20047;-39
2022/12/14 00:21:24;;;;;;;6.10;3.75;;;16.80;1.00;;;;;;5094223;28;20482;-38
2022/12/14 00:23:51;;;;;;;5.65;3.55;;;16.80;1.00;;;;;;5093809;28;20421;-38
2022/12/14 00:26:24;;;;;;;4.30;3.03;;;16.80;1.00;;;;;;5094046;28;20043;-38
2022/12/14 00:28:53;;;;;;;5.03;3.35;;;16.80;1.00;;;;;;5094221;28;20036;-38
2022/12/14 00:31:21;;;;;;;5.35;3.33;;;16.70;1.00;;;;;;5094011;28;20135;-38
2022/12/14 00:33:49;;;;;;;6.82;4.07;;;16.70;1.00;;;;;;5075528;28;20044;-39
2022/12/14 00:36:16;;;;;;;5.55;3.42;;;16.70;1.00;;;;;;5093947;28;20048;-39
2022/12/14 00:38:43;;;;;;;5.50;3.75;;;16.60;1.00;;;;;;5093826;28;20075;-38
2022/12/14 00:41:11;;;;;;;5.53;3.58;;;16.60;1.00;;;;;;5093830;28;20115;-39
2022/12/14 00:43:38;;;;;;;6.90;3.72;;;16.60;1.00;;;;;;5093501;28;20044;-39
2022/12/14 00:46:05;;;;;;;6.10;3.33;;;16.50;1.00;;;;;;5093581;28;20062;-39
2022/12/14 00:48:33;;;;;;;5.97;3.90;;;16.50;1.00;;;;;;5079088;28;20052;-38
2022/12/14 00:50:59;;;;;;;8.20;3.78;;;16.50;1.00;;;;;;5073430;28;20048;-38
2022/12/14 00:53:26;;;;;;;5.97;3.60;;;16.40;1.00;;;;;;5073080;28;20662;-38
2022/12/14 00:55:53;;;;;;;5.10;3.28;;;16.40;1.00;;;;;;5073290;28;20068;-39
2022/12/14 00:58:22;;;;;;;5.60;3.63;;;16.40;1.00;;;;;;5073128;28;20119;-38
2022/12/14 01:01:01;;;;;;;6.00;3.85;;;16.30;1.00;;;;;;5073094;28;20059;-39
2022/12/14 01:03:28;;;;;;;6.95;4.47;;;16.30;1.00;;;;;;5073032;28;20109;-38
2022/12/14 01:05:55;;;;;;;6.53;3.97;;;16.30;1.00;;;;;;5073071;28;20123;-39
2022/12/14 01:08:22;;;;;;;5.80;3.40;;;16.20;1.00;;;;;;5072843;28;20555;-39
2022/12/14 01:10:50;;;;;;;4.40;3.20;;;16.20;1.00;;;;;;5072974;28;20127;-38
2022/12/14 01:13:17;;;;;;;5.63;3.85;;;16.20;1.00;;;;;;5072588;28;20048;-38
2022/12/14 01:15:44;;;;;;;6.45;3.42;;;16.10;1.00;;;;;;5072941;28;20549;-38
2022/12/14 01:18:11;;;;;;;5.22;3.47;;;16.10;1.00;;;;;;5072252;28;20101;-38
2022/12/14 01:20:38;;;;;;;5.95;3.80;;;16.10;1.00;;;;;;5072474;28;20055;-38
2022/12/14 01:23:05;;;;;;;6.03;3.65;;;16.00;1.00;;;;;;5072503;28;20041;-38
2022/12/14 01:25:32;;;;;;;6.43;3.42;;;16.00;1.00;;;;;;5072573;28;20063;-38
2022/12/14 01:27:58;;;;;;;5.95;3.50;;;16.00;1.00;;;;;;5072634;28;20121;-38
2022/12/14 01:30:25;;;;;;;5.65;3.58;;;15.90;1.00;;;;;;5072818;28;20426;-39
2022/12/14 01:32:52;;;;;;;5.70;3.80;;;15.90;1.00;;;;;;5072307;28;20052;-38
2022/12/14 01:35:18;;;;;;;4.95;3.30;;;15.90;1.00;;;;;;5072428;28;20055;-39
2022/12/14 01:37:45;;;;;;;7.10;3.67;;;15.80;1.00;;;;;;5072391;28;20044;-38
2022/12/14 01:40:15;;;;;;;5.68;3.85;;;15.80;1.00;;;;;;5072367;28;20555;-38
2022/12/14 01:42:41;;;;;;;6.45;3.55;;;15.80;1.00;;;;;;5071942;28;20055;-38
2022/12/14 01:45:21;;;;;;;5.10;3.53;;;15.80;1.00;;;;;;5072379;28;20040;-39
2022/12/14 01:47:55;;;;;;;8.07;3.28;;;15.70;1.00;;;;;;5072219;28;20539;-38
2022/12/14 01:50:27;;;;;;;6.82;4.28;;;15.70;1.00;;;;;;5072188;28;20040;-39
2022/12/14 01:53:03;;;;;;;7.78;4.22;;;15.60;1.00;;;;;;5071921;28;20058;-38
2022/12/14 01:55:35;;;;;;;4.65;3.60;;;15.60;1.00;;;;;;5072218;28;20048;-38
2022/12/14 01:58:23;;;;;;;5.45;3.08;;;15.60;1.00;;;;;;5072033;28;20044;-38
2022/12/14 02:00:54;;;;;;;5.40;3.33;;;15.60;1.00;;;;;;5072088;28;20041;-38
2022/12/14 02:03:22;;;;;;;4.90;3.47;;;15.50;1.00;;;;;;5071845;28;20503;-38
2022/12/14 02:06:00;;;;;;;8.93;3.83;;;15.50;1.00;;;;;;5072037;28;20059;-38
2022/12/14 02:08:27;;;;;;;6.32;3.78;;;15.50;1.00;;;;;;5071875;28;20420;-38
2022/12/14 02:10:55;;;;;;;5.45;3.58;;;15.40;1.00;;;;;;5071937;28;20046;-38
2022/12/14 02:13:30;;;;;;;5.10;3.13;;;15.40;1.00;;;;;;5071599;28;20106;-38
2022/12/14 02:15:57;;;;;;;5.93;3.78;;;15.40;1.00;;;;;;5071923;28;20036;-38
2022/12/14 02:18:27;;;;;;;5.65;3.42;;;15.30;1.00;;;;;;5071713;28;20090;-38
2022/12/14 02:21:04;;;;;;;5.90;3.72;;;15.30;1.00;;;;;;5071855;28;20041;-38
2022/12/14 02:23:53;;;;;;;5.38;3.47;;;15.30;1.00;;;;;;5071569;28;20487;-38
2022/12/14 02:26:54;;;;;;;6.05;3.78;;;15.30;1.00;;;;;;5071820;28;20044;-38
2022/12/14 02:29:38;;;;;;;7.15;3.38;;;15.30;1.00;;;;;;5071778;28;20044;-38
2022/12/14 02:32:14;;;;;;;5.63;3.17;;;15.20;1.00;;;;;;5071625;28;20036;-38
2022/12/14 02:34:54;;;;;;;5.68;3.40;;;15.20;1.00;;;;;;5071461;28;20044;-38
2022/12/14 02:37:24;;;;;;;4.82;3.45;;;15.20;1.00;;;;;;5053521;28;20497;-38
2022/12/14 02:40:03;;;;;;;6.82;4.00;;;15.10;1.00;;;;;;5071743;28;20519;-38
2022/12/14 02:42:57;;;;;;;5.22;3.15;;;15.10;1.00;;;;;;5071477;28;20036;-38
2022/12/14 02:45:45;;;;;;;5.28;3.20;;;15.00;1.00;;;;;;5071726;28;20467;-38
2022/12/14 02:48:23;;;;;;;6.43;3.50;;;15.00;1.00;;;;;;5071537;28;20109;-38
2022/12/14 02:51:20;;;;;;;5.85;3.78;;;15.00;1.00;;;;;;5071567;28;20090;-38
2022/12/14 02:54:04;;;;;;;6.97;3.53;;;15.00;1.00;;;;;;5071198;28;20093;-38
2022/12/14 02:56:47;;;;;;;7.03;3.45;;;15.00;1.00;;;;;;5071524;28;20083;-38
2022/12/14 02:59:16;;;;;;;5.00;3.28;;;14.90;1.00;;;;;;5071488;28;20045;-38
2022/12/14 03:01:45;;;;;;;7.32;3.35;;;14.90;1.00;;;;;;5071511;28;20044;-38
2022/12/14 03:04:14;;;;;;;5.18;3.50;;;14.80;1.00;;;;;;5071110;28;20127;-38
2022/12/14 03:07:01;;;;;;;6.50;3.38;;;14.80;1.00;;;;;;5053330;28;20131;-38
2022/12/14 03:09:29;;;;;;;5.75;3.25;;;14.80;1.00;;;;;;5071365;28;20051;-43
2022/12/14 03:12:12;;;;;;;5.63;3.78;;;14.80;1.00;;;;;;5071242;28;20107;-43
2022/12/14 03:14:44;;;;;;;6.57;3.23;;;14.70;1.00;;;;;;5071396;28;20131;-42
2022/12/14 03:17:18;;;;;;;8.10;3.58;;;14.70;1.00;;;;;;5071209;28;20127;-43
2022/12/14 03:19:49;;;;;;;5.13;3.17;;;14.70;1.00;;;;;;5071359;28;20551;-43
2022/12/14 03:22:27;;;;;;;4.35;3.40;;;14.70;1.00;;;;;;5071053;28;20082;-42
2022/12/14 03:24:59;;;;;;;6.28;3.78;;;14.70;1.00;;;;;;5071109;28;20040;-43
2022/12/14 03:27:34;;;;;;;5.00;3.40;;;14.60;1.00;;;;;;5071287;28;20045;-43
2022/12/14 03:30:12;;;;;;;4.32;2.83;;;14.60;1.00;;;;;;5071397;28;20072;-43
2022/12/14 03:32:45;;;;;;;5.90;3.45;;;14.60;1.00;;;;;;5070879;28;20098;-43
2022/12/14 03:35:19;;;;;;;8.43;3.55;;;14.50;1.00;;;;;;5071582;28;20474;-43
2022/12/14 03:38:11;;;;;;;5.72;3.78;;;14.50;1.00;;;;;;5071058;28;20048;-43
2022/12/14 03:40:47;;;;;;;5.07;3.08;;;14.50;1.00;;;;;;5071262;28;20068;-43
2022/12/14 03:43:22;;;;;;;5.15;3.67;;;14.50;1.00;;;;;;5073428;28;20483;-42
2022/12/14 03:46:04;;;;;;;7.43;4.07;;;14.50;1.00;;;;;;5074738;28;20037;-43
2022/12/14 03:48:50;;;;;;;5.75;3.65;;;14.40;1.00;;;;;;5074503;28;20056;-43
2022/12/14 03:51:33;;;;;;;6.70;3.88;;;14.40;1.00;;;;;;5074504;28;20444;-43
2022/12/14 03:54:03;;;;;;;6.60;3.75;;;14.40;1.00;;;;;;5074347;28;20048;-43
2022/12/14 03:56:51;;;;;;;4.75;3.10;;;14.30;1.00;;;;;;5074600;28;20062;-44
2022/12/14 03:59:52;;;;;;;5.47;2.90;;;14.30;1.00;;;;;;5056651;28;20123;-43
2022/12/14 04:02:29;;;;;;;6.97;3.67;;;14.30;1.00;;;;;;5074219;28;20071;-43
2022/12/14 04:05:13;;;;;;;6.70;3.53;;;14.40;1.00;;;;;;5074278;28;20507;-43
2022/12/14 04:08:08;;;;;;;4.70;3.10;;;14.40;1.00;;;;;;5074259;28;20460;-44
2022/12/14 04:19:27;;;;;;;6.18;4.00;;;14.80;1.00;;;;;;5056100;28;20648;-43
2022/12/14 04:22:11;;;;;;;6.53;3.75;;;14.90;1.00;;;;;;5074133;28;20094;-43
2022/12/14 04:27:35;;;;;;;4.88;3.17;;;15.10;1.00;;;;;;5073922;28;20434;-43
2022/12/14 04:30:04;;;;;;;4.28;3.08;;;15.10;1.00;;;;;;5073877;28;20127;-43
2022/12/14 04:36:02;;;;;;;4.30;2.88;;;15.20;1.00;;;;;;5068986;28;20476;-43
2022/12/14 04:38:35;;;;;;;3.88;2.65;;;15.30;1.00;;;;;;5073538;28;20075;-43
2022/12/14 04:41:06;;;;;;;5.22;3.25;;;15.30;1.00;;;;;;5073811;28;20044;-43
2022/12/14 04:43:39;;;;;;;4.90;2.92;;;15.30;1.00;;;;;;5073382;28;20060;-44
2022/12/14 04:46:24;;;;;;;4.25;2.47;;;15.30;1.00;;;;;;5073590;28;20131;-44
2022/12/14 04:49:08;;;;;;;4.82;3.20;;;15.30;1.00;;;;;;5073613;28;20384;-43
2022/12/14 04:51:44;;;;;;;5.25;3.63;;;15.30;1.00;;;;;;5073610;28;20438;-43
2022/12/14 04:54:30;;;;;;;6.07;3.40;;;15.30;1.00;;;;;;5073177;28;20118;-43
2022/12/14 04:57:16;;;;;;;7.75;3.35;;;15.30;1.00;;;;;;5073481;28;20417;-43
2022/12/14 04:59:46;;;;;;;4.63;2.72;;;15.20;1.00;;;;;;5053327;28;20107;-44
2022/12/14 05:02:45;;;;;;;4.47;3.00;;;15.30;1.00;;;;;;5053098;28;20041;-44
2022/12/14 05:05:43;;;;;;;5.97;3.50;;;15.20;1.00;;;;;;5035393;28;20045;-43
2022/12/14 05:08:21;;;;;;;5.13;3.88;;;15.20;1.00;;;;;;5052898;28;20451;-43
2022/12/14 05:11:00;;;;;;;6.85;3.78;;;15.20;1.00;;;;;;5053050;28;20161;-43
2022/12/14 05:13:49;;;;;;;4.30;3.20;;;15.20;1.00;;;;;;5077762;28;20071;-43
2022/12/14 05:16:18;;;;;;;5.93;3.63;;;15.20;1.00;;;;;;5084306;28;20044;-43
2022/12/14 05:18:45;;;;;;;8.82;3.72;;;15.10;1.00;;;;;;5093110;28;20064;-43
2022/12/14 05:23:59;;;;;;;8.52;3.40;;;15.10;1.00;;;;;;5092947;28;20048;-43
2022/12/14 05:26:27;;;;;;;19.45;4.45;;;15.10;1.00;;;;;;5093043;28;20039;-43
2022/12/14 05:28:54;;;;;;;6.90;3.55;;;15.20;1.00;;;;;;5089928;28;20519;-43
2022/12/14 05:31:21;;;;;;;7.20;3.22;;;15.20;1.00;;;;;;5074426;28;20526;-44
2022/12/14 05:33:48;;;;;;;6.63;3.22;;;15.30;1.00;;;;;;5087827;28;20491;-43
2022/12/14 05:36:15;;;;;;;7.95;3.97;;;15.30;1.00;;;;;;5072402;28;20123;-43
2022/12/14 05:38:41;;;;;;;8.15;3.80;;;15.40;1.00;;;;;;5071904;28;20036;-43
2022/12/14 05:41:08;;;;;;;9.07;3.00;;;15.50;1.00;;;;;;5079843;28;20046;-43
2022/12/14 05:43:35;;;;;;;9.52;3.85;;;15.50;1.00;;;;;;5068381;28;20044;-43
2022/12/14 05:46:03;;;;;;;6.57;3.67;;;15.60;1.00;;;;;;5092095;28;20115;-43
2022/12/14 05:48:30;;;;;;;5.50;3.53;;;15.60;1.00;;;;;;5092483;28;20036;-43
2022/12/14 05:51:08;;;;;;;6.82;2.90;;;15.70;1.00;;;;;;5092449;28;20044;-43
2022/12/14 05:53:35;;;;;;;5.28;3.30;;;15.80;1.00;;;;;;5092247;28;20430;-43
2022/12/14 05:56:04;;;;;;;7.57;4.28;;;15.80;1.00;;;;;;5092484;28;20143;-43
2022/12/14 05:58:32;;;;;;;5.53;3.17;;;15.90;1.00;;;;;;5092215;28;20282;-43
2022/12/14 06:01:04;;;;;;;6.55;3.72;;;15.90;1.00;;;;;;5082648;28;20071;-43
2022/12/14 06:03:31;;;;;;;5.60;3.30;;;15.90;1.00;;;;;;5074800;28;20041;-43
2022/12/14 06:06:03;;;;;;;8.07;3.80;;;15.90;1.00;;;;;;5078760;28;20036;-43
2022/12/14 06:08:38;;;;;;;7.80;3.78;;;16.00;1.00;;;;;;5085035;28;20059;-43
2022/12/14 06:11:07;;;;;;;7.15;3.92;;;16.00;1.00;;;;;;5092033;28;20491;-43
2022/12/14 06:13:35;;;;;;;8.70;3.75;;;16.00;1.00;;;;;;5091884;28;20039;-43
2022/12/14 06:16:10;;;;;;;7.85;4.03;;;16.00;1.00;;;;;;5092118;28;20105;-43
2022/12/14 06:18:49;;;;;;;6.38;3.50;;;15.90;1.00;;;;;;5092032;28;20376;-43
2022/12/14 06:21:18;;;;;;;7.47;3.90;;;15.90;1.00;;;;;;5091923;28;20067;-43
2022/12/14 06:23:45;;;;;;;6.57;3.03;;;15.90;1.00;;;;;;5091802;28;20060;-43
2022/12/14 06:26:14;;;;;;;9.48;4.43;;;15.90;1.00;;;;;;5074119;28;20083;-43
2022/12/14 06:28:41;;;;;;;7.13;4.32;;;15.90;1.00;;;;;;5091962;28;20055;-42
2022/12/14 06:31:23;;;;;;;8.32;4.25;;;15.90;1.00;;;;;;5092113;28;20052;-43
2022/12/14 06:33:52;;;;;;;7.82;4.13;;;15.80;1.00;;;;;;5091561;28;20410;-43
2022/12/14 06:36:27;;;;;;;5.13;3.58;;;15.80;1.00;;;;;;5091911;28;20059;-42
2022/12/14 06:38:55;;;;;;;7.20;4.18;;;15.80;1.00;;;;;;5091725;28;20043;-43
2022/12/14 06:41:23;;;;;;;7.18;4.13;;;15.70;1.00;;;;;;5091859;28;20111;-42
2022/12/14 06:44:42;;;;;;;7.80;4.45;;;15.70;1.00;;;;;;5091572;28;20032;-43
2022/12/14 06:47:08;;;;;;;6.90;3.92;;;15.70;1.00;;;;;;5089809;28;20132;-43
2022/12/14 06:49:35;;;;;;;6.82;3.80;;;15.60;1.00;;;;;;5091899;28;20410;-43
2022/12/14 06:52:02;;;;;;;5.90;3.88;;;15.70;1.00;;;;;;5091646;28;20048;-43
2022/12/14 06:54:29;;;;;;;6.05;4.43;;;15.60;1.00;;;;;;5091270;28;20123;-43
2022/12/14 06:56:55;;;;;;;6.82;4.40;;;15.70;1.00;;;;;;5091406;28;20051;-43
2022/12/14 06:59:22;;;;;;;5.88;3.88;;;15.70;1.00;;;;;;5091482;28;20101;-43
2022/12/14 07:01:49;;;;;;;6.45;4.60;;;15.80;1.00;;;;;;5091637;28;20032;-43
2022/12/14 07:04:17;;;;;;;8.20;3.33;;;15.80;1.00;;;;;;5091066;28;20036;-42
2022/12/14 07:06:44;;;;;;;6.30;4.00;;;15.90;1.00;;;;;;5091577;28;20079;-43
2022/12/14 07:09:13;;;;;;;6.15;4.25;;;15.90;1.00;;;;;;5091346;28;20133;-44
2022/12/14 07:11:40;;;;;;;5.40;3.20;;;16.00;1.00;;;;;;5091513;28;20063;-43
2022/12/14 07:14:09;;;;;;;8.85;4.25;;;16.00;1.00;;;;;;5091221;28;20044;-43
2022/12/14 07:16:36;;;;;;;6.93;3.65;;;16.10;1.00;;;;;;5091756;28;20050;-43
2022/12/14 07:19:03;;;;;;;7.00;4.10;;;16.10;1.00;;;;;;5095456;28;20127;-44
2022/12/14 07:21:31;;;;;;;5.85;3.47;;;16.20;1.00;;;;;;5095455;28;20055;-44
2022/12/14 07:23:59;;;;;;;7.10;4.50;;;16.20;1.00;;;;;;5094995;28;20036;-43
2022/12/14 07:26:27;;;;;;;7.18;4.22;;;16.20;1.00;;;;;;5095365;28;20036;-43
2022/12/14 07:28:54;;;;;;;6.45;4.03;;;16.30;1.00;;;;;;5095281;28;20051;-43
2022/12/14 07:31:25;;;;;;;6.82;3.83;;;16.30;1.00;;;;;;5095241;28;20044;-43
2022/12/14 07:33:54;;;;;;;8.25;4.03;;;16.30;1.00;;;;;;5095070;28;20427;-43
2022/12/14 07:36:22;;;;;;;7.60;4.30;;;16.30;1.00;;;;;;5095037;28;20047;-43
2022/12/14 07:38:50;;;;;;;5.40;4.13;;;16.20;1.00;;;;;;5095030;28;20051;-44
2022/12/14 07:41:24;;;;;;;7.75;4.07;;;16.20;1.00;;;;;;5076001;28;20054;-43
2022/12/14 07:43:54;;;;;;;7.65;4.35;;;16.20;1.00;;;;;;5090599;28;20054;-44
2022/12/14 07:46:22;;;;;;;6.90;4.10;;;16.20;1.00;;;;;;5090968;28;20496;-43
2022/12/14 07:48:52;;;;;;;7.07;4.43;;;16.10;1.00;;;;;;5087268;28;20044;-43
2022/12/14 07:51:22;;;;;;;9.05;4.15;;;16.10;1.00;;;;;;5089010;28;20044;-42
2022/12/14 07:53:50;;;;;;;8.02;4.78;;;16.10;1.00;;;;;;5093107;28;20063;-43
2022/12/14 07:56:20;;;;;;;7.13;3.78;;;16.00;1.00;;;;;;5076549;28;20217;-43
2022/12/14 07:58:48;;;;;;;9.63;4.38;;;16.00;1.00;;;;;;5094403;28;20050;-43
2022/12/14 08:01:19;;;;;;;6.43;3.72;;;16.00;1.00;;;;;;5076201;28;20142;-43
2022/12/14 08:04:08;;;;;;;6.15;4.65;;;15.90;1.00;;;;;;5094382;28;20039;-42
2022/12/14 08:06:35;;;;;;;6.57;4.22;;;15.90;1.00;;;;;;5094303;28;20036;-42
2022/12/14 08:09:03;;;;;;;6.97;4.35;;;15.80;1.00;;;;;;5094302;28;20507;-43
2022/12/14 08:11:30;;;;;;;7.05;3.78;;;15.80;1.00;;;;;;5094375;28;20051;-43
2022/12/14 08:13:59;;;;;;;7.35;4.47;;;15.80;1.00;;;;;;5093974;28;20052;-43
2022/12/14 08:16:27;;;;;;;7.72;4.22;;;15.90;1.00;;;;;;5094281;28;20135;-43
2022/12/14 08:18:55;;;;;;;7.57;4.43;;;15.90;1.00;;;;;;5094215;28;20070;-44
2022/12/14 08:21:23;;;;;;;6.32;4.43;;;15.90;1.00;;;;;;5094270;28;20097;-43
2022/12/14 08:23:56;;;;;;;5.78;3.40;;;16.00;1.00;;;;;;5093771;28;20118;-42
2022/12/14 08:26:29;;;;;;;6.93;4.57;;;16.00;1.00;;;;;;5075735;28;20052;-43
2022/12/14 08:29:04;;;;;;;6.50;4.00;;;16.10;1.00;;;;;;5093721;28;20040;-43
2022/12/14 08:31:32;;;;;;;6.18;4.38;;;16.10;1.00;;;;;;5094073;28;20052;-43
2022/12/14 08:34:00;;;;;;;6.63;4.15;;;16.20;1.00;;;;;;5093728;28;20044;-43
2022/12/14 08:36:29;;;;;;;7.18;4.35;;;16.20;1.00;;;;;;5093973;28;20380;-43
2022/12/14 08:38:58;;;;;;;7.18;4.20;;;16.30;1.00;;;;;;5093730;28;20480;-43
2022/12/14 08:41:26;;;;;;;7.05;4.95;;;16.30;1.00;;;;;;5093833;28;20047;-42
2022/12/14 08:43:58;;;;;;;6.65;4.35;;;16.40;1.00;;;;;;5093671;28;20040;-42
2022/12/14 08:46:27;;;;;;;6.45;4.00;;;16.40;1.00;;;;;;5094068;28;20102;-43
2022/12/14 08:48:56;;;;;;;6.68;4.38;;;16.50;1.00;;;;;;5093702;28;20470;-43
2022/12/14 08:51:24;;;;;;;6.18;4.35;;;16.50;1.00;;;;;;5075614;28;20071;-43
2022/12/14 08:53:52;;;;;;;5.45;4.05;;;16.60;1.00;;;;;;5093383;28;20048;-43
2022/12/14 08:56:21;;;;;;;7.65;4.43;;;16.60;1.00;;;;;;5093608;28;20051;-42
2022/12/14 08:58:48;;;;;;;7.00;4.78;;;16.60;1.00;;;;;;5093420;28;20086;-43
2022/12/14 09:01:18;;;;;;;7.72;4.90;;;16.60;1.00;;;;;;5093517;28;20036;-43
2022/12/14 09:03:46;;;;;;;7.63;4.90;;;16.60;1.00;;;;;;5093130;28;20042;-43
2022/12/14 09:06:22;;;;;;;7.38;4.60;;;16.60;1.00;;;;;;5093444;28;20440;-43
2022/12/14 09:08:49;;;;;;;6.28;4.20;;;16.70;1.00;;;;;;5093050;28;20044;-44
2022/12/14 09:11:18;;;;;;;6.15;4.20;;;16.70;1.00;;;;;;5093119;28;20052;-43
2022/12/14 09:13:45;;;;;;;6.85;4.10;;;16.70;1.00;;;;;;5102209;22;20380;-37
2022/12/14 09:16:18;;;;;;;5.28;4.10;;;16.70;1.00;;;;;;5064225;28;20467;-37
2022/12/14 09:18:47;;;;;;;8.55;4.80;;;16.70;1.00;;;;;;5072793;28;20046;-37
2022/12/14 09:21:14;;;;;;;7.40;5.03;;;16.70;1.00;;;;;;5072897;28;20045;-37
2022/12/14 09:23:43;;;;;;;8.07;4.90;;;16.60;1.00;;;;;;5059460;28;20450;-37
2022/12/14 09:26:11;;;;;;;7.22;4.30;;;16.60;1.00;;;;;;5034878;28;20045;-37
2022/12/14 09:28:39;;;;;;;7.05;4.63;;;16.60;1.00;;;;;;5052666;28;20492;-36
2022/12/14 09:31:11;;;;;;;6.95;4.65;;;16.60;1.00;;;;;;5052608;28;20298;-36
2022/12/14 09:33:38;;;;;;;5.90;4.53;;;16.60;1.00;;;;;;5052255;28;20044;-36
2022/12/14 09:36:09;;;;;;;7.45;4.72;;;16.60;1.00;;;;;;5034768;28;20041;-36
2022/12/14 09:38:38;;;;;;;8.35;4.72;;;16.50;1.00;;;;;;5052473;28;20048;-37
2022/12/14 09:41:15;;;;;;;6.70;4.53;;;16.50;1.00;;;;;;5051815;28;20037;-37
2022/12/14 09:43:46;;;;;;;7.32;4.93;;;16.50;1.00;;;;;;5052024;28;20040;-37
2022/12/14 09:46:46;;;;;;;6.95;4.68;;;16.40;1.00;;;;;;5052503;28;20072;-37
2022/12/14 09:49:24;;;;;;;8.02;4.97;;;16.40;1.00;;;;;;5052287;28;20153;-37
2022/12/14 09:51:53;;;;;;;7.05;4.38;;;16.40;1.00;;;;;;5034344;28;20053;-37
2022/12/14 09:54:25;;;;;;;8.15;5.00;;;16.40;1.00;;;;;;5052046;28;20127;-37
2022/12/14 09:56:56;;;;;;;8.10;4.75;;;16.30;1.00;;;;;;5034713;28;20052;-37
2022/12/14 09:59:26;;;;;;;6.20;4.13;;;16.30;1.00;;;;;;5034532;28;20063;-36
2022/12/14 10:02:00;;;;;;;6.43;4.05;;;16.30;1.00;;;;;;5034423;28;20551;-37
2022/12/14 10:05:05;;;;;;;;;;;16.20;1.00;;;;;;5034527;28;20052;-43
2022/12/14 10:07:53;;;;;;;7.82;4.50;;;16.20;1.00;;;;;;5052193;28;20346;-37
2022/12/14 10:10:43;;;;;;;6.30;4.55;;;16.10;1.00;;;;;;5052085;28;20048;-37
2022/12/14 10:13:13;;;;;;;5.93;4.05;;;16.10;1.00;;;;;;5051479;28;20041;-37
2022/12/14 10:15:51;;;;;;;6.80;4.78;;;16.10;1.00;;;;;;5051986;28;20496;-36
2022/12/14 10:18:34;;;;;;;6.85;4.57;;;16.10;1.00;;;;;;5051846;28;20073;-36
2022/12/14 10:21:23;;;;;;;7.45;4.30;;;16.00;1.00;;;;;;5051834;28;20136;-36
2022/12/14 10:24:03;;;;;;;7.25;4.43;;;16.00;1.00;;;;;;5051350;28;20048;-37
2022/12/14 10:26:37;;;;;;;6.72;4.63;;;16.00;1.00;;;;;;5051875;28;20045;-38
2022/12/14 10:29:24;;;;;;;6.43;4.63;;;15.90;1.00;;;;;;5051916;28;20048;-38
2022/12/14 10:32:00;;;;;;;5.80;3.88;;;15.90;1.00;;;;;;5051772;28;20504;-38
2022/12/14 10:34:31;;;;;;;8.70;4.72;;;15.80;1.00;;;;;;5051290;28;20131;-36
2022/12/14 10:37:09;;;;;;;6.03;4.13;;;15.80;1.00;;;;;;5051601;28;20116;-36
2022/12/14 10:40:02;;;;;;;7.63;4.60;;;15.80;1.00;;;;;;5051577;28;20040;-37
2022/12/14 10:42:58;;;;;;;6.32;4.28;;;15.70;1.00;;;;;;5051245;28;20412;-37
2022/12/14 10:45:34;;;;;;;5.90;4.05;;;15.70;1.00;;;;;;5051698;28;20045;-37
2022/12/14 10:48:33;;;;;;;5.93;3.72;;;15.70;1.00;;;;;;5051476;28;20488;-37
2022/12/14 10:51:06;;;;;;;7.03;4.55;;;15.60;1.00;;;;;;5052584;28;20116;-37
2022/12/14 10:54:11;;;;;;;5.78;3.65;;;15.60;1.00;;;;;;5055260;28;20048;-37
2022/12/14 10:56:40;;;;;;;5.28;3.65;;;15.60;1.00;;;;;;5025292;28;20088;-37
2022/12/14 10:59:20;;;;;;;5.35;4.22;;;15.50;1.00;;;;;;5055472;28;20045;-37
2022/12/14 11:02:06;;;;;;;6.15;4.03;;;15.50;1.00;;;;;;5055500;28;20083;-37
2022/12/14 11:04:43;;;;;;;5.57;3.80;;;15.50;1.00;;;;;;5055305;28;20437;-37
2022/12/14 11:07:14;;;;;;;5.53;4.38;;;15.50;1.00;;;;;;5055458;28;20045;-37
2022/12/14 11:09:42;;;;;;;7.43;4.18;;;15.40;1.00;;;;;;5037599;28;20566;-37
2022/12/14 11:12:11;;;;;;;6.00;3.58;;;15.40;1.00;;;;;;5055202;28;20041;-37
2022/12/14 11:14:52;;;;;;;6.65;3.40;;;15.40;1.00;;;;;;5055087;28;20047;-36
2022/12/14 11:17:39;;;;;;;7.10;3.90;;;15.40;1.00;;;;;;5055206;28;20040;-38
2022/12/14 11:20:14;;;;;;;6.47;3.97;;;15.30;1.00;;;;;;5055042;28;20064;-37
2022/12/14 11:22:44;;;;;;;6.15;3.63;;;15.30;1.00;;;;;;5054765;28;20059;-37
2022/12/14 11:25:25;;;;;;;6.90;3.90;;;15.30;1.00;;;;;;5055122;28;20041;-37
2022/12/14 11:27:53;;;;;;;5.55;3.63;;;15.20;1.00;;;;;;5054976;28;20556;-37
2022/12/14 11:30:19;;;;;;;7.53;4.13;;;15.20;1.00;;;;;;5054939;28;20079;-38
2022/12/14 11:32:47;;;;;;;5.07;3.72;;;15.20;1.00;;;;;;5054578;28;20535;-38
2022/12/14 11:35:17;;;;;;;5.38;4.03;;;15.20;1.00;;;;;;5036953;28;20048;-37
2022/12/14 11:37:47;;;;;;;7.10;3.53;;;15.20;1.00;;;;;;5054846;28;20439;-37
2022/12/14 11:40:25;;;;;;;5.80;3.55;;;15.10;1.00;;;;;;5054569;28;20068;-37
2022/12/14 11:43:00;;;;;;;5.93;3.85;;;15.10;1.00;;;;;;5054508;28;20112;-37
2022/12/14 11:45:30;;;;;;;5.40;3.33;;;15.10;1.00;;;;;;5054705;28;20451;-37
2022/12/14 11:48:12;;;;;;;4.88;3.35;;;15.00;1.00;;;;;;5054709;28;20419;-37
2022/12/14 11:50:39;;;;;;;6.05;3.58;;;15.00;1.00;;;;;;5054603;28;20459;-37
2022/12/14 11:53:10;;;;;;;4.55;3.08;;;15.00;1.00;;;;;;5054264;28;20048;-37
2022/12/14 11:55:43;;;;;;;5.68;3.83;;;15.00;1.00;;;;;;5054573;28;20098;-37
2022/12/14 11:58:26;;;;;;;5.22;3.42;;;15.00;1.00;;;;;;5054576;28;20090;-37
2022/12/14 12:00:57;;;;;;;;;;;14.90;1.00;;;;;;5037261;28;20047;-37
2022/12/14 12:03:29;;;;;;;5.30;3.42;;;14.90;1.00;;;;;;5053845;28;20220;-37
2022/12/14 12:06:04;;;;;;;4.63;3.30;;;14.90;1.00;;;;;;5054334;28;20059;-37
2022/12/14 12:08:35;;;;;;;4.75;3.03;;;14.80;1.00;;;;;;5054386;28;20496;-37
2022/12/14 12:11:15;;;;;;;4.55;2.80;;;14.80;1.00;;;;;;5054445;28;20599;-37
2022/12/14 12:13:44;;;;;;;7.05;3.60;;;14.80;1.00;;;;;;5053599;28;20098;-37
2022/12/14 12:16:21;;;;;;;4.93;3.28;;;14.80;1.00;;;;;;5054116;28;20106;-38
2022/12/14 12:18:58;;;;;;;5.18;2.95;;;14.80;1.00;;;;;;5054382;28;20060;-38
2022/12/14 12:21:34;;;;;;;5.80;4.03;;;14.70;1.00;;;;;;5054362;28;20045;-38
2022/12/14 12:24:04;;;;;;;6.53;3.00;;;14.70;1.00;;;;;;5053635;28;20033;-38
2022/12/14 12:26:50;;;;;;;4.25;3.08;;;14.70;1.00;;;;;;5036358;28;20508;-38
2022/12/14 12:29:33;;;;;;;4.30;2.95;;;14.70;1.00;;;;;;5054031;28;20076;-38
2022/12/14 12:32:27;;;;;;;5.30;3.30;;;14.60;1.00;;;;;;5053820;28;20044;-38
2022/12/14 12:35:23;;;;;;;4.32;2.70;;;14.60;1.00;;;;;;5053806;28;20048;-38
2022/12/14 12:38:37;;;;;;;6.55;3.28;;;14.60;1.00;;;;;;5053352;28;20106;-38
2022/12/14 12:41:32;;;;;;;4.88;2.97;;;14.50;1.00;;;;;;5053746;28;20099;-38
2022/12/14 12:44:28;;;;;;;6.35;3.40;;;14.50;1.00;;;;;;5035329;28;20047;-38
2022/12/14 12:47:17;;;;;;;4.03;3.00;;;14.50;1.00;;;;;;5053494;28;20099;-38
2022/12/14 12:50:13;;;;;;;4.90;3.03;;;14.50;1.00;;;;;;5053509;28;20520;-38
2022/12/14 12:52:53;;;;;;;5.63;3.35;;;14.40;1.00;;;;;;5053177;28;20037;-39
2022/12/14 12:55:30;;;;;;;4.85;3.03;;;14.40;1.00;;;;;;5053761;28;20116;-38
2022/12/14 12:58:00;;;;;;;4.22;2.78;;;14.40;1.00;;;;;;5053381;28;20244;-38
2022/12/14 13:00:29;;;;;;;4.28;2.92;;;14.40;1.00;;;;;;5053308;28;20048;-37
2022/12/14 13:03:26;;;;;;;6.00;3.10;;;14.50;1.00;;;;;;5052975;28;20041;-37
2022/12/14 13:06:15;;;;;;;5.68;2.67;;;14.50;1.00;;;;;;5046945;28;20056;-37
2022/12/14 13:08:44;;;;;;;4.57;2.72;;;14.70;1.00;;;;;;5053152;28;20507;-40
2022/12/14 13:11:21;;;;;;;4.72;2.60;;;14.70;1.00;;;;;;5053210;28;20033;-36
2022/12/14 13:13:59;;;;;;;3.45;2.25;;;14.90;1.00;;;;;;5052227;28;20048;-37
2022/12/14 13:16:36;;;;;;;5.20;3.60;;;14.90;1.00;;;;;;5052436;28;20045;-36
2022/12/14 13:19:26;;;;;;;4.97;2.92;;;15.10;1.00;;;;;;5052946;28;20496;-37
2022/12/14 13:22:17;;;;;;;4.30;2.63;;;15.20;1.00;;;;;;5052507;28;20072;-37
2022/12/14 13:24:46;;;;;;;5.93;2.65;;;15.30;1.00;;;;;;5035056;28;20045;-37
2022/12/14 13:27:28;;;;;;;3.58;2.67;;;15.40;1.00;;;;;;5052722;28;20041;-37
2022/12/14 13:30:03;;;;;;;3.60;2.55;;;15.50;1.00;;;;;;5052589;28;20127;-37
2022/12/14 13:32:46;;;;;;;3.42;2.35;;;15.50;1.00;;;;;;5052537;28;20400;-37
2022/12/14 13:35:22;;;;;;;3.65;2.17;;;15.60;1.00;;;;;;5052688;28;20045;-37
2022/12/14 13:38:24;;;;;;;3.88;2.58;;;15.60;1.00;;;;;;5052729;28;20049;-37
2022/12/14 13:41:11;;;;;;;4.13;2.30;;;15.70;1.00;;;;;;5031771;28;20481;-37
2022/12/14 13:44:15;;;;;;;5.10;3.25;;;15.70;1.00;;;;;;5034312;28;20052;-36
2022/12/14 13:46:42;;;;;;;5.18;2.20;;;15.70;1.00;;;;;;5052462;28;20037;-37
2022/12/14 13:49:20;;;;;;;3.75;2.03;;;15.70;1.00;;;;;;5052089;28;20077;-37
2022/12/14 13:51:49;;;;;;;3.75;2.25;;;15.70;1.00;;;;;;5052392;28;20135;-37
2022/12/14 13:54:28;;;;;;;2.85;1.92;;;15.70;1.00;;;;;;5051955;28;20565;-37